createdAt,value
2019-05-20T00:00:29.622Z,99.90
2019-05-20T00:02:59.097Z,99.90
2019-05-20T00:05:28.573Z,99.90
2019-05-20T00:07:58.050Z,99.90
2019-05-20T00:10:27.578Z,99.90
2019-05-20T00:12:57.059Z,99.90
2019-05-20T00:15:26.515Z,99.90
2019-05-20T00:17:55.994Z,99.90
2019-05-20T00:20:25.454Z,99.90
2019-05-20T00:22:54.939Z,99.90
2019-05-20T00:25:24.398Z,99.90
2019-05-20T00:27:54.942Z,99.90
2019-05-20T00:30:24.402Z,99.90
2019-05-20T00:32:53.955Z,99.90
2019-05-20T00:35:23.485Z,99.90
2019-05-20T00:37:52.970Z,99.90
2019-05-20T00:40:22.425Z,99.90
2019-05-20T00:42:51.908Z,99.90
2019-05-20T00:45:21.366Z,99.90
2019-05-20T00:47:50.851Z,99.90
2019-05-20T00:50:20.331Z,99.90
2019-05-20T00:52:51.094Z,99.90
2019-05-20T00:55:26.493Z,99.90
2019-05-20T00:57:56.011Z,99.90
2019-05-20T01:00:25.911Z,99.90
2019-05-20T01:02:57.223Z,99.90
2019-05-20T01:05:26.594Z,99.90
2019-05-20T01:07:56.192Z,99.90
2019-05-20T01:10:26.811Z,99.90
2019-05-20T01:12:56.332Z,99.90
2019-05-20T01:15:26.457Z,99.90
2019-05-20T01:17:55.907Z,99.90
2019-05-20T01:20:25.457Z,99.90
2019-05-20T01:22:54.919Z,99.90
2019-05-20T01:25:24.462Z,99.90
2019-05-20T01:27:53.943Z,99.90
2019-05-20T01:30:23.477Z,99.90
2019-05-20T01:32:52.925Z,99.90
2019-05-20T01:35:22.474Z,99.90
2019-05-20T01:37:51.937Z,99.90
2019-05-20T01:40:21.479Z,99.90
2019-05-20T01:42:50.946Z,99.90
2019-05-20T01:45:20.510Z,99.90
2019-05-20T01:47:49.968Z,99.90
2019-05-20T01:50:20.519Z,99.90
2019-05-20T01:52:50.041Z,99.90
2019-05-20T01:55:19.514Z,99.90
2019-05-20T01:57:48.969Z,99.90
2019-05-20T02:00:18.586Z,99.90
2019-05-20T02:02:48.030Z,99.90
2019-05-20T02:05:17.573Z,99.90
2019-05-20T02:07:47.034Z,99.90
2019-05-20T02:10:16.750Z,99.90
2019-05-20T02:12:46.202Z,99.90
2019-05-20T02:15:30.797Z,99.90
2019-05-20T02:18:00.254Z,99.90
2019-05-20T02:20:29.816Z,99.90
2019-05-20T02:23:17.301Z,99.90
2019-05-20T02:25:48.513Z,99.90
2019-05-20T02:28:19.123Z,99.90
2019-05-20T02:30:48.643Z,99.90
2019-05-20T02:33:18.174Z,99.90
2019-05-20T02:35:47.650Z,99.90
2019-05-20T02:38:17.109Z,99.90
2019-05-20T02:40:46.584Z,99.90
2019-05-20T02:43:16.110Z,99.90
2019-05-20T02:45:45.591Z,99.90
2019-05-20T02:48:15.042Z,99.90
2019-05-20T02:50:44.521Z,99.90
2019-05-20T02:53:14.051Z,99.90
2019-05-20T02:55:43.803Z,99.90
2019-05-20T02:58:13.259Z,99.90
2019-05-20T03:00:42.797Z,99.90
2019-05-20T03:03:12.250Z,99.90
2019-05-20T03:05:41.742Z,99.90
2019-05-20T03:08:11.207Z,99.90
2019-05-20T03:10:40.749Z,99.90
2019-05-20T03:13:10.265Z,99.90
2019-05-20T03:15:40.883Z,99.90
2019-05-20T03:18:10.410Z,99.90
2019-05-20T03:20:39.890Z,99.90
2019-05-20T03:23:09.421Z,99.90
2019-05-20T03:25:38.962Z,99.90
2019-05-20T03:28:09.584Z,99.90
2019-05-20T03:30:39.142Z,99.90
2019-05-20T03:33:08.597Z,99.90
2019-05-20T03:35:38.123Z,99.90
2019-05-20T03:38:07.624Z,99.90
2019-05-20T03:40:37.117Z,99.90
2019-05-20T03:43:06.558Z,99.90
2019-05-20T03:45:36.038Z,99.90
2019-05-20T03:48:05.556Z,99.90
2019-05-20T03:50:35.118Z,99.90
2019-05-20T03:53:04.723Z,99.90
2019-05-20T03:55:34.183Z,99.90
2019-05-20T03:58:03.698Z,99.90
2019-05-20T04:00:46.761Z,99.90
2019-05-20T04:03:16.481Z,99.90
2019-05-20T04:05:46.375Z,99.90
2019-05-20T04:08:15.894Z,99.90
2019-05-20T04:10:45.391Z,99.90
2019-05-20T04:13:14.832Z,99.90
2019-05-20T04:15:44.300Z,99.90
2019-05-20T04:18:13.786Z,99.90
2019-05-20T04:20:43.313Z,99.90
2019-05-20T04:23:12.862Z,99.90
2019-05-20T04:25:42.321Z,99.90
2019-05-20T04:28:11.798Z,99.90
2019-05-20T04:30:41.514Z,99.90
2019-05-20T04:33:10.996Z,99.90
2019-05-20T04:35:40.518Z,99.90
2019-05-20T04:38:10.065Z,99.90
2019-05-20T04:40:39.868Z,99.90
2019-05-20T04:43:09.335Z,99.90
2019-05-20T04:45:38.781Z,99.90
2019-05-20T04:48:08.262Z,99.90
2019-05-20T04:50:37.713Z,99.90
2019-05-20T04:53:07.189Z,99.90
2019-05-20T04:55:36.641Z,99.90
2019-05-20T04:58:06.118Z,99.90
2019-05-20T05:00:53.457Z,99.90
2019-05-20T05:03:23.278Z,99.90
2019-05-20T05:05:53.283Z,99.90
2019-05-20T05:08:22.233Z,99.90
2019-05-20T05:10:51.973Z,99.90
2019-05-20T05:13:22.000Z,99.90
2019-05-20T05:15:50.764Z,99.90
2019-05-20T05:18:20.569Z,99.90
2019-05-20T05:20:50.265Z,99.90
2019-05-20T05:23:20.978Z,99.90
2019-05-20T05:25:50.429Z,99.90
2019-05-20T05:28:21.214Z,99.90
2019-05-20T05:30:50.741Z,99.90
2019-05-20T05:33:20.217Z,99.90
2019-05-20T05:35:53.140Z,99.90
2019-05-20T05:38:21.504Z,99.90
2019-05-20T05:40:50.958Z,99.90
2019-05-20T05:43:20.443Z,99.90
2019-05-20T05:45:49.898Z,99.90
2019-05-20T05:48:19.365Z,99.90
2019-05-20T05:50:48.818Z,99.90
2019-05-20T05:53:18.294Z,99.90
2019-05-20T05:55:47.749Z,99.90
2019-05-20T05:58:17.240Z,99.90
2019-05-20T06:00:46.695Z,99.90
2019-05-20T06:03:16.167Z,99.90
2019-05-20T06:05:45.621Z,99.90
2019-05-20T06:08:15.102Z,99.90
2019-05-20T06:10:44.553Z,99.90
2019-05-20T06:13:14.034Z,99.90
2019-05-20T06:15:43.489Z,99.90
2019-05-20T06:18:12.969Z,99.90
2019-05-20T06:20:42.490Z,99.90
2019-05-20T06:23:11.978Z,99.90
2019-05-20T06:25:41.434Z,99.90
2019-05-20T06:28:10.921Z,99.50
2019-05-20T06:30:42.229Z,99.90
2019-05-20T06:33:11.772Z,99.50
2019-05-20T06:35:41.565Z,99.20
2019-05-20T06:38:12.857Z,98.20
2019-05-20T06:40:42.323Z,98.80
2019-05-20T06:43:11.796Z,99.20
2019-05-20T06:45:41.249Z,99.20
2019-05-20T06:48:11.798Z,99.40
2019-05-20T06:50:41.262Z,99.40
2019-05-20T06:53:10.749Z,99.40
2019-05-20T06:55:40.269Z,99.90
2019-05-20T06:58:09.720Z,98.80
2019-05-20T07:00:39.845Z,98.70
2019-05-20T07:03:09.499Z,99.40
2019-05-20T07:05:38.986Z,97.50
2019-05-20T07:08:08.433Z,95.50
2019-05-20T07:10:37.914Z,95.50
2019-05-20T07:13:07.440Z,95.30
2019-05-20T07:15:36.913Z,95.30
2019-05-20T07:18:06.439Z,95.00
2019-05-20T07:20:35.929Z,93.80
2019-05-20T07:23:05.445Z,93.70
2019-05-20T07:25:38.093Z,93.50
2019-05-20T07:28:07.734Z,94.10
2019-05-20T07:30:37.215Z,92.60
2019-05-20T07:33:06.680Z,91.70
2019-05-20T07:35:36.142Z,91.90
2019-05-20T07:38:06.734Z,92.20
2019-05-20T07:40:36.216Z,91.60
2019-05-20T07:43:06.133Z,90.20
2019-05-20T07:45:36.869Z,90.90
2019-05-20T07:48:06.652Z,90.90
2019-05-20T07:50:39.829Z,89.30
2019-05-20T07:53:11.826Z,90.40
2019-05-20T07:55:47.127Z,90.50
2019-05-20T07:58:18.594Z,90.00
2019-05-20T08:00:48.207Z,89.90
2019-05-20T08:03:17.805Z,88.80
2019-05-20T08:05:47.357Z,88.90
2019-05-20T08:08:16.805Z,89.60
2019-05-20T08:10:46.466Z,89.80
2019-05-20T08:13:15.901Z,89.80
2019-05-20T08:15:45.386Z,89.70
2019-05-20T08:18:14.910Z,89.90
2019-05-20T08:20:44.529Z,90.30
2019-05-20T08:23:14.075Z,90.80
2019-05-20T08:25:43.571Z,90.20
2019-05-20T08:28:13.005Z,90.30
2019-05-20T08:30:42.501Z,90.10
2019-05-20T08:33:12.001Z,89.90
2019-05-20T08:35:41.624Z,90.20
2019-05-20T08:38:11.076Z,89.40
2019-05-20T08:40:42.123Z,89.60
2019-05-20T08:43:11.745Z,90.10
2019-05-20T08:45:41.366Z,89.10
2019-05-20T08:48:10.892Z,89.00
2019-05-20T08:50:40.377Z,89.70
2019-05-20T08:53:09.839Z,90.20
2019-05-20T08:55:39.335Z,89.40
2019-05-20T08:58:08.807Z,89.80
2019-05-20T09:00:38.332Z,88.20
2019-05-20T09:03:07.860Z,88.90
2019-05-20T09:05:37.337Z,87.80
2019-05-20T09:08:06.858Z,87.70
2019-05-20T09:10:39.430Z,88.60
2019-05-20T09:13:07.486Z,88.50
2019-05-20T09:15:36.986Z,87.30
2019-05-20T09:18:06.503Z,88.20
2019-05-20T09:20:35.978Z,88.40
2019-05-20T09:23:05.430Z,87.70
2019-05-20T09:25:35.059Z,87.80
2019-05-20T09:28:04.870Z,88.30
2019-05-20T09:30:34.558Z,88.40
2019-05-20T09:33:04.153Z,88.20
2019-05-20T09:35:33.693Z,88.90
2019-05-20T09:38:18.489Z,89.20
2019-05-20T09:40:37.331Z,89.80
2019-05-20T09:43:07.218Z,89.90
2019-05-20T09:45:37.903Z,90.60
2019-05-20T09:48:09.771Z,91.30
2019-05-20T09:50:39.726Z,92.30
2019-05-20T09:53:09.431Z,92.50
2019-05-20T09:55:39.124Z,93.00
2019-05-20T09:58:08.731Z,93.50
2019-05-20T10:00:38.322Z,94.00
2019-05-20T10:03:07.987Z,94.50
2019-05-20T10:05:37.952Z,95.10
2019-05-20T10:08:07.737Z,94.40
2019-05-20T10:10:37.332Z,94.50
2019-05-20T10:13:08.020Z,94.70
2019-05-20T10:15:38.155Z,94.70
2019-05-20T10:18:07.705Z,94.40
2019-05-20T10:20:38.236Z,95.00
2019-05-20T10:23:07.808Z,95.30
2019-05-20T10:25:37.245Z,95.30
2019-05-20T10:28:06.791Z,95.30
2019-05-20T10:30:36.238Z,95.30
2019-05-20T10:33:09.414Z,96.00
2019-05-20T10:35:36.789Z,96.30
2019-05-20T10:38:06.283Z,97.00
2019-05-20T10:40:35.808Z,97.40
2019-05-20T10:43:05.359Z,97.30
2019-05-20T10:45:34.961Z,97.30
2019-05-20T10:48:08.408Z,97.30
2019-05-20T10:50:35.705Z,97.00
2019-05-20T10:53:05.261Z,97.70
2019-05-20T10:55:35.789Z,97.80
2019-05-20T10:58:05.502Z,97.30
2019-05-20T11:00:35.139Z,97.50
2019-05-20T11:03:04.682Z,97.60
2019-05-20T11:05:34.134Z,98.20
2019-05-20T11:08:03.613Z,98.50
2019-05-20T11:10:33.065Z,98.30
2019-05-20T11:13:03.720Z,98.30
2019-05-20T11:15:33.243Z,98.20
2019-05-20T11:18:02.726Z,98.60
2019-05-20T11:20:32.245Z,98.60
2019-05-20T11:23:01.729Z,98.60
2019-05-20T11:25:31.277Z,98.40
2019-05-20T11:28:00.982Z,99.10
2019-05-20T11:30:30.017Z,99.40
2019-05-20T11:32:59.486Z,99.10
2019-05-20T11:35:28.954Z,99.20
2019-05-20T11:37:58.426Z,99.10
2019-05-20T11:40:27.881Z,99.40
2019-05-20T11:42:57.353Z,99.50
2019-05-20T11:45:26.989Z,99.50
2019-05-20T11:47:56.473Z,99.50
2019-05-20T11:50:25.921Z,99.20
2019-05-20T11:52:55.401Z,99.80
2019-05-20T11:55:25.267Z,99.70
2019-05-20T11:57:54.428Z,99.60
2019-05-20T12:00:24.144Z,99.90
2019-05-20T12:02:53.699Z,99.90
2019-05-20T12:05:23.247Z,99.90
2019-05-20T12:07:52.702Z,99.90
2019-05-20T12:10:22.294Z,99.90
2019-05-20T12:12:51.900Z,99.90
2019-05-20T12:15:21.520Z,99.90
2019-05-20T12:17:50.998Z,99.90
2019-05-20T12:20:20.795Z,99.90
2019-05-20T12:22:50.277Z,99.90
2019-05-20T12:25:19.889Z,99.90
2019-05-20T12:27:49.379Z,99.90
2019-05-20T12:30:19.828Z,99.90
2019-05-20T12:32:49.261Z,99.90
2019-05-20T12:35:18.879Z,99.90
2019-05-20T12:37:48.338Z,99.90
2019-05-20T12:40:18.149Z,99.80
2019-05-20T12:42:47.609Z,99.80
2019-05-20T12:45:17.426Z,99.60
2019-05-20T12:47:46.881Z,99.50
2019-05-20T12:50:16.794Z,99.70
2019-05-20T12:52:45.475Z,99.60
2019-05-20T12:55:15.194Z,99.40
2019-05-20T12:57:44.723Z,99.90
2019-05-20T13:00:15.302Z,99.20
2019-05-20T13:02:44.842Z,99.20
2019-05-20T13:05:15.153Z,99.20
2019-05-20T13:07:44.689Z,99.80
2019-05-20T13:10:28.784Z,99.90
2019-05-20T13:12:45.487Z,98.80
2019-05-20T13:15:15.503Z,97.80
2019-05-20T13:17:45.460Z,97.00
2019-05-20T13:20:14.323Z,96.80
2019-05-20T13:22:43.694Z,96.10
2019-05-20T13:25:13.346Z,96.60
2019-05-20T13:27:42.806Z,96.30
2019-05-20T13:30:14.332Z,97.10
2019-05-20T13:32:43.853Z,96.90
2019-05-20T13:35:13.869Z,97.50
2019-05-20T13:37:44.395Z,97.70
2019-05-20T13:40:14.111Z,97.20
2019-05-20T13:42:43.834Z,96.50
2019-05-20T13:45:14.393Z,95.90
2019-05-20T13:47:43.805Z,95.20
2019-05-20T13:50:13.817Z,95.40
2019-05-20T13:52:42.563Z,95.80
2019-05-20T13:55:12.284Z,95.90
2019-05-20T13:57:41.814Z,95.90
2019-05-20T14:00:11.726Z,95.90
2019-05-20T14:02:41.177Z,96.50
2019-05-20T14:05:11.258Z,95.10
2019-05-20T14:07:39.943Z,94.50
2019-05-20T14:10:09.865Z,94.30
2019-05-20T14:12:38.543Z,95.40
2019-05-20T14:15:08.270Z,94.90
2019-05-20T14:17:37.726Z,94.80
2019-05-20T14:20:07.551Z,94.70
2019-05-20T14:22:37.006Z,95.00
2019-05-20T14:25:08.019Z,95.10
2019-05-20T14:27:37.502Z,95.10
2019-05-20T14:30:10.221Z,95.40
2019-05-20T14:32:39.656Z,95.50
2019-05-20T14:35:09.645Z,96.10
2019-05-20T14:37:39.170Z,95.00
2019-05-20T14:40:08.992Z,95.30
2019-05-20T14:42:38.536Z,96.10
2019-05-20T14:45:08.297Z,95.50
2019-05-20T14:47:38.841Z,95.80
2019-05-20T14:50:09.814Z,96.40
2019-05-20T14:52:38.534Z,96.60
2019-05-20T14:55:08.161Z,96.50
2019-05-20T14:57:37.593Z,96.60
2019-05-20T15:00:08.423Z,96.20
2019-05-20T15:02:37.943Z,96.10
2019-05-20T15:05:08.830Z,96.00
2019-05-20T15:07:38.351Z,95.70
2019-05-20T15:10:09.365Z,95.80
2019-05-20T15:12:38.831Z,96.10
2019-05-20T15:15:10.278Z,95.70
2019-05-20T15:17:39.764Z,95.80
2019-05-20T15:20:09.788Z,95.90
2019-05-20T15:22:39.322Z,96.30
2019-05-20T15:25:09.889Z,95.80
2019-05-20T15:27:39.437Z,95.50
2019-05-20T15:30:09.521Z,95.70
2019-05-20T15:32:39.012Z,95.70
2019-05-20T15:35:09.738Z,95.90
2019-05-20T15:37:39.181Z,95.70
2019-05-20T15:40:09.177Z,95.80
2019-05-20T15:42:37.869Z,96.20
2019-05-20T15:45:08.278Z,95.90
2019-05-20T15:47:50.579Z,96.20
2019-05-20T15:50:20.422Z,96.10
2019-05-20T15:52:49.939Z,96.60
2019-05-20T15:55:19.398Z,97.40
2019-05-20T15:57:48.946Z,97.70
2019-05-20T16:00:18.708Z,98.20
2019-05-20T16:02:48.185Z,98.60
2019-05-20T16:05:17.636Z,98.70
2019-05-20T16:07:47.113Z,99.30
2019-05-20T16:10:16.781Z,99.90
2019-05-20T16:12:46.381Z,99.90
2019-05-20T16:15:16.097Z,99.90
2019-05-20T16:17:48.231Z,99.90
2019-05-20T16:20:17.058Z,99.90
2019-05-20T16:22:46.533Z,99.90
2019-05-20T16:25:16.061Z,99.90
2019-05-20T16:27:45.606Z,99.90
2019-05-20T16:30:15.397Z,99.90
2019-05-20T16:32:44.954Z,99.90
2019-05-20T16:35:14.770Z,99.90
2019-05-20T16:37:44.340Z,99.90
2019-05-20T16:40:14.249Z,99.90
2019-05-20T16:42:43.727Z,99.90
2019-05-20T16:45:13.718Z,99.90
2019-05-20T16:47:42.485Z,99.90
2019-05-20T16:50:12.186Z,99.90
2019-05-20T16:52:41.734Z,99.90
2019-05-20T16:55:11.445Z,99.90
2019-05-20T16:57:40.973Z,99.90
2019-05-20T17:00:29.744Z,99.90
2019-05-20T17:02:44.109Z,99.90
2019-05-20T17:05:13.702Z,99.90
2019-05-20T17:07:43.179Z,99.90
2019-05-20T17:10:13.137Z,99.90
2019-05-20T17:12:41.835Z,99.90
2019-05-20T17:15:11.444Z,99.90
2019-05-20T17:17:40.994Z,99.90
2019-05-20T17:20:10.895Z,99.90
2019-05-20T17:22:39.651Z,99.90
2019-05-20T17:25:09.363Z,99.90
2019-05-20T17:27:38.905Z,99.90
2019-05-20T17:30:08.710Z,99.90
2019-05-20T17:32:38.331Z,99.90
2019-05-20T17:35:07.987Z,99.90
2019-05-20T17:37:37.529Z,99.90
2019-05-20T17:40:08.786Z,99.90
2019-05-20T17:42:39.403Z,99.90
2019-05-20T17:45:09.998Z,99.90
2019-05-20T17:47:39.611Z,99.90
2019-05-20T17:50:09.805Z,99.90
2019-05-20T17:52:39.420Z,99.90
2019-05-20T17:55:09.210Z,99.90
2019-05-20T17:57:38.731Z,99.90
2019-05-20T18:00:11.922Z,99.90
2019-05-20T18:02:41.368Z,99.90
2019-05-20T18:05:14.513Z,99.90
2019-05-20T18:07:42.483Z,99.90
2019-05-20T18:10:12.145Z,99.90
2019-05-20T18:12:41.617Z,99.90
2019-05-20T18:15:11.461Z,99.90
2019-05-20T18:17:40.905Z,99.90
2019-05-20T18:20:10.517Z,99.90
2019-05-20T18:22:40.043Z,99.90
2019-05-20T18:25:09.876Z,99.90
2019-05-20T18:27:39.521Z,99.90
2019-05-20T18:30:09.448Z,99.90
2019-05-20T18:32:38.719Z,99.90
2019-05-20T18:35:09.326Z,99.90
2019-05-20T18:37:38.765Z,99.90
2019-05-20T18:40:14.479Z,99.90
2019-05-20T18:42:40.904Z,99.90
2019-05-20T18:45:10.889Z,99.90
2019-05-20T18:47:39.558Z,99.90
2019-05-20T18:50:09.527Z,99.90
2019-05-20T18:52:38.181Z,99.90
2019-05-20T18:55:07.649Z,99.90
2019-05-20T18:57:37.170Z,99.90
2019-05-20T19:00:11.318Z,99.90
2019-05-20T19:02:42.479Z,99.90
2019-05-20T19:05:12.491Z,99.90
2019-05-20T19:07:42.225Z,99.90
2019-05-20T19:10:12.014Z,99.90
2019-05-20T19:12:41.707Z,99.90
2019-05-20T19:15:12.401Z,99.90
2019-05-20T19:17:41.865Z,99.90
2019-05-20T19:20:11.402Z,99.90
2019-05-20T19:22:40.857Z,99.90
2019-05-20T19:25:10.682Z,99.90
2019-05-20T19:27:40.163Z,99.90
2019-05-20T19:30:10.191Z,99.90
2019-05-20T19:32:39.658Z,99.90
2019-05-20T19:35:09.884Z,99.90
2019-05-20T19:37:39.454Z,99.90
2019-05-20T19:40:10.545Z,99.90
2019-05-20T19:42:40.207Z,99.90
2019-05-20T19:45:10.242Z,99.90
2019-05-20T19:47:39.755Z,99.90
2019-05-20T19:50:09.766Z,99.90
2019-05-20T19:52:39.396Z,99.90
2019-05-20T19:55:10.080Z,99.90
2019-05-20T19:57:39.545Z,99.90
2019-05-20T20:00:09.671Z,99.90
2019-05-20T20:02:39.189Z,99.90
2019-05-20T20:05:08.731Z,99.90
2019-05-20T20:07:38.186Z,99.90
2019-05-20T20:10:08.204Z,99.90
2019-05-20T20:12:37.730Z,99.90
2019-05-20T20:15:25.809Z,99.90
2019-05-20T20:17:55.265Z,99.90
2019-05-20T20:20:24.750Z,99.90
2019-05-20T20:22:54.209Z,99.90
2019-05-20T20:25:23.825Z,99.90
2019-05-20T20:27:53.289Z,99.90
2019-05-20T20:30:22.770Z,99.90
2019-05-20T20:32:52.217Z,99.90
2019-05-20T20:35:21.761Z,99.90
2019-05-20T20:37:51.216Z,99.90
2019-05-20T20:40:20.688Z,99.90
2019-05-20T20:42:50.151Z,99.90
2019-05-20T20:45:19.637Z,99.90
2019-05-20T20:47:49.098Z,99.90
2019-05-20T20:50:18.648Z,99.90
2019-05-20T20:52:48.105Z,99.90
2019-05-20T20:55:17.602Z,99.90
2019-05-20T20:57:47.057Z,99.90
2019-05-20T21:00:17.005Z,99.90
2019-05-20T21:02:53.099Z,99.90
2019-05-20T21:05:16.877Z,99.90
2019-05-20T21:07:46.354Z,99.90
2019-05-20T21:10:17.346Z,99.90
2019-05-20T21:12:46.833Z,99.90
2019-05-20T21:15:16.382Z,99.90
2019-05-20T21:17:45.868Z,99.90
2019-05-20T21:20:15.465Z,99.90
2019-05-20T21:22:44.941Z,99.90
2019-05-20T21:25:14.557Z,99.90
2019-05-20T21:27:44.982Z,99.90
2019-05-20T21:30:14.894Z,99.90
2019-05-20T21:32:44.377Z,99.90
2019-05-20T21:35:13.906Z,99.90
2019-05-20T21:37:43.381Z,99.90
2019-05-20T21:40:12.905Z,99.90
2019-05-20T21:42:42.389Z,99.90
2019-05-20T21:45:11.986Z,99.90
2019-05-20T21:47:44.585Z,99.90
2019-05-20T21:50:12.621Z,99.90
2019-05-20T21:52:42.103Z,99.90
2019-05-20T21:55:11.626Z,99.90
2019-05-20T21:57:41.107Z,99.90
2019-05-20T22:00:12.751Z,99.90
2019-05-20T22:02:43.850Z,99.90
2019-05-20T22:05:13.370Z,99.90
2019-05-20T22:07:42.853Z,99.90
2019-05-20T22:10:12.850Z,99.90
2019-05-20T22:12:42.325Z,99.90
2019-05-20T22:15:11.934Z,99.90
2019-05-20T22:17:41.414Z,99.90
2019-05-20T22:20:11.314Z,99.90
2019-05-20T22:22:50.630Z,99.90
2019-05-20T22:25:20.014Z,99.90
2019-05-20T22:27:49.508Z,99.90
2019-05-20T22:30:19.103Z,99.90
2019-05-20T22:32:48.586Z,99.90
2019-05-20T22:35:18.037Z,99.90
2019-05-20T22:37:47.525Z,99.90
2019-05-20T22:40:17.054Z,99.90
2019-05-20T22:42:46.531Z,99.90
2019-05-20T22:45:16.049Z,99.90
2019-05-20T22:47:45.534Z,99.90
2019-05-20T22:50:15.066Z,99.90
2019-05-20T22:52:44.617Z,99.90
2019-05-20T22:55:14.145Z,99.90
2019-05-20T22:57:43.633Z,99.90
2019-05-20T23:00:14.660Z,99.90
2019-05-20T23:02:43.354Z,99.90
2019-05-20T23:05:13.170Z,99.90
2019-05-20T23:07:42.653Z,99.90
2019-05-20T23:10:13.722Z,99.90
2019-05-20T23:12:43.244Z,99.90
2019-05-20T23:15:12.810Z,99.90
2019-05-20T23:17:42.312Z,99.90
2019-05-20T23:20:11.844Z,99.90
2019-05-20T23:22:41.323Z,99.90
2019-05-20T23:25:10.913Z,99.90
2019-05-20T23:27:40.402Z,99.90
2019-05-20T23:30:10.509Z,99.90
2019-05-20T23:32:39.985Z,99.90
2019-05-20T23:35:09.505Z,99.90
2019-05-20T23:37:39.067Z,99.90
2019-05-20T23:40:09.437Z,99.90
2019-05-20T23:42:39.873Z,99.90
2019-05-20T23:45:09.976Z,99.90
2019-05-20T23:47:39.527Z,99.90
2019-05-20T23:50:09.216Z,99.90
2019-05-20T23:52:38.701Z,99.90
2019-05-20T23:55:08.917Z,99.90
2019-05-20T23:57:38.374Z,99.90
